Terminal Aerodrome Forecast
Issued by NWS North Platte, NE

Home | Current Version | Previous Version | Text Only | Print | Product List | Glossary On
Versions: 1 2 3 4 5 6 7 8 9 10 11 12 13 14 15 16 17 18 19 20 21 22 23
630
FTUS43 KLBF 222006 AAD
TAFLBF
TAF AMD
KLBF 222006Z 2220/2318 14005KT 2SM -SHSN OVC015
     FM222200 14006KT P6SM OVC015
     FM230600 VRB03KT P6SM OVC015
     FM231500 35004KT P6SM BKN007 OVC012
     FM231700 04004KT P6SM SCT040=

USA.gov is the U.S. government's official web portal to all federal, state and local government web resources and services.